Time;durP1;ratioP1;P1;durP2;ratioP2;P2;SDS_P1;SDS_P2;PMS_P1;PMS_P2;Temp;Humidity;BMP_temperature;BMP_pressure;BME280_temperature;BME280_humidity;BME280_pressure;Samples;Min_cycle;Max_cycle;Signal;HPM_P1;HPM_P2
2023/08/28 00:02:12;;;;;;;9.10;3.70;;;24.80;65.00;;;25.52;46.04;94644.78;5074747;28;20450;-60
2023/08/28 00:04:41;;;;;;;6.40;3.53;;;24.90;65.10;;;25.52;46.62;94638.56;5070884;28;20576;-56
2023/08/28 00:07:08;;;;;;;10.03;3.77;;;24.80;65.10;;;25.54;46.19;94642.66;5073085;28;20490;-61
2023/08/28 00:09:36;;;;;;;9.70;4.50;;;24.80;65.60;;;25.54;46.50;94631.88;5075398;28;20473;-62
2023/08/28 00:12:04;;;;;;;15.03;6.30;;;24.90;65.70;;;25.54;46.43;94637.25;5070623;28;20450;-60
2023/08/28 00:14:31;;;;;;;15.80;10.57;;;24.90;65.80;;;25.53;46.28;94630.25;5075374;28;20477;-55
2023/08/28 00:16:59;;;;;;;25.10;13.77;;;24.80;65.70;;;25.52;46.84;94627.81;5069478;28;20458;-57
2023/08/28 00:19:26;;;;;;;23.23;16.13;;;24.80;65.90;;;25.49;47.15;94622.91;5075314;28;20485;-56
2023/08/28 00:21:55;;;;;;;28.47;21.50;;;24.80;66.10;;;25.46;46.77;94623.38;5068510;28;20505;-60
2023/08/28 00:24:22;;;;;;;36.23;23.83;;;24.80;66.10;;;25.43;46.90;94629.22;5075224;28;20465;-56
2023/08/28 00:26:49;;;;;;;35.67;25.70;;;24.80;66.30;;;25.37;47.18;94623.72;5068991;28;20915;-55
2023/08/28 00:29:17;;;;;;;32.33;24.20;;;24.70;66.50;;;25.35;46.78;94628.53;5075029;28;20477;-57
2023/08/28 00:31:44;;;;;;;30.87;21.87;;;24.70;66.50;;;25.33;47.47;94627.13;5070036;28;20504;-57
2023/08/28 00:34:11;;;;;;;29.90;20.00;;;24.70;66.80;;;25.29;46.94;94628.69;5076672;28;20504;-56
2023/08/28 00:36:38;;;;;;;23.07;20.77;;;24.60;66.90;;;25.27;47.16;94631.59;5070598;28;20511;-61
2023/08/28 00:39:07;;;;;;;32.77;18.57;;;24.60;67.00;;;25.23;47.31;94630.41;5073143;28;20994;-55
2023/08/28 00:41:36;;;;;;;23.80;16.70;;;24.60;67.00;;;25.17;47.50;94642.94;5070585;28;20932;-61
2023/08/28 00:44:04;;;;;;;23.87;16.23;;;24.50;67.00;;;25.10;47.87;94646.81;5074443;28;20476;-57
2023/08/28 00:46:32;;;;;;;19.90;14.90;;;24.40;67.20;;;25.05;47.47;94650.19;5068743;28;20526;-55
2023/08/28 00:48:59;;;;;;;20.33;14.10;;;24.40;67.30;;;24.99;47.44;94651.97;5074385;28;20505;-61
2023/08/28 00:51:26;;;;;;;23.87;12.80;;;24.30;67.60;;;24.96;48.04;94647.06;5068382;28;20453;-61
2023/08/28 00:53:53;;;;;;;15.20;12.10;;;24.30;67.90;;;24.92;48.41;94640.50;5070013;28;20995;-56
2023/08/28 00:56:22;;;;;;;16.47;9.70;;;24.30;68.30;;;24.89;48.36;94635.59;5073969;28;20450;-61
2023/08/28 00:58:49;;;;;;;12.70;8.83;;;24.30;68.40;;;24.86;48.29;94630.69;5068895;28;20500;-57
2023/08/28 01:01:16;;;;;;;10.43;7.20;;;24.20;68.40;;;24.82;48.54;94629.53;5074456;28;20900;-57
2023/08/28 01:03:43;;;;;;;14.00;7.57;;;24.20;68.30;;;24.79;48.22;94627.31;5067090;28;20478;-61
2023/08/28 01:06:18;;;;;;;12.57;8.47;;;24.20;68.80;;;24.75;48.57;94623.44;5074995;28;20790;-61
2023/08/28 01:09:04;;;;;;;12.33;7.77;;;24.10;69.10;;;24.73;48.51;94617.50;5071221;28;20466;-59
2023/08/28 01:11:37;;;;;;;7.97;7.10;;;24.10;69.20;;;24.70;49.08;94629.53;5072920;28;20524;-60
2023/08/28 01:14:09;;;;;;;13.90;6.40;;;24.00;69.20;;;24.66;48.84;94625.66;5066767;28;20481;-56
2023/08/28 01:16:36;;;;;;;20.83;6.80;;;24.00;69.20;;;24.63;49.09;94626.13;5069600;28;20442;-62
2023/08/28 01:19:05;;;;;;;11.93;8.07;;;24.00;69.40;;;24.58;48.89;94632.22;5074014;28;20855;-62
2023/08/28 01:21:32;;;;;;;12.60;7.80;;;24.00;69.50;;;24.53;48.59;94627.50;5067246;28;20447;-62
2023/08/28 01:24:00;;;;;;;11.10;7.17;;;23.90;69.50;;;24.51;49.50;94626.13;5073655;28;20550;-62
2023/08/28 01:26:29;;;;;;;13.63;7.93;;;23.90;69.90;;;24.48;49.59;94626.59;5067412;28;20547;-56
2023/08/28 01:28:56;;;;;;;10.83;7.60;;;23.80;70.00;;;24.45;48.97;94621.66;5072896;28;20484;-61
2023/08/28 01:31:24;;;;;;;17.57;8.40;;;23.80;70.40;;;24.42;49.27;94620.25;5069326;28;20535;-60
2023/08/28 01:33:52;;;;;;;10.50;8.07;;;23.80;70.50;;;24.41;49.11;94617.78;5077492;28;20523;-57
2023/08/28 01:36:26;;;;;;;16.43;9.70;;;23.80;70.70;;;24.38;49.22;94613.69;5069453;28;20553;-61
2023/08/28 01:38:57;;;;;;;13.00;8.00;;;23.70;70.60;;;24.37;49.31;94612.06;5069848;28;20584;-61
2023/08/28 01:41:25;;;;;;;16.53;7.87;;;23.70;70.60;;;24.34;49.71;94605.28;5069991;28;20496;-61
2023/08/28 01:43:58;;;;;;;11.73;5.93;;;23.70;70.60;;;24.33;49.51;94608.19;5073094;28;20526;-57
2023/08/28 01:46:25;;;;;;;8.23;5.40;;;23.70;70.60;;;24.29;49.39;94607.03;5069661;28;20442;-56
2023/08/28 01:48:53;;;;;;;11.23;6.53;;;23.60;71.30;;;24.25;48.92;94598.59;5072335;28;20474;-58
2023/08/28 01:51:20;;;;;;;10.40;7.53;;;23.60;70.50;;;24.22;49.12;94604.44;5068279;28;20462;-60
2023/08/28 01:53:48;;;;;;;12.10;5.80;;;23.60;70.50;;;24.19;49.12;94607.59;5073801;28;20571;-56
2023/08/28 01:56:17;;;;;;;13.70;6.77;;;23.60;70.50;;;24.16;49.60;94595.44;5066864;28;20470;-55
2023/08/28 01:58:46;;;;;;;6.43;5.30;;;23.50;70.40;;;24.13;49.80;94595.09;5070352;28;20531;-55
2023/08/28 02:01:15;;;;;;;13.50;6.10;;;23.50;70.40;;;24.11;49.34;94597.19;5077415;28;20442;-62
2023/08/28 02:03:42;;;;;;;10.47;6.30;;;23.50;70.60;;;24.10;49.97;94603.59;5071956;28;20479;-61
2023/08/28 02:06:09;;;;;;;10.93;6.30;;;23.50;71.00;;;24.08;49.37;94600.34;5076373;28;20454;-61
2023/08/28 02:08:36;;;;;;;11.40;6.50;;;23.40;71.10;;;24.08;49.66;94600.34;5073166;28;20570;-57
2023/08/28 02:11:04;;;;;;;14.30;7.33;;;23.40;71.30;;;24.07;50.45;94596.00;5076906;28;20901;-57
2023/08/28 02:13:31;;;;;;;12.90;8.03;;;23.40;71.80;;;24.06;50.35;94597.06;5072270;28;20884;-61
2023/08/28 02:15:58;;;;;;;14.27;9.60;;;23.40;72.10;;;24.04;50.05;94607.22;5077155;28;20442;-55
2023/08/28 02:18:27;;;;;;;14.17;8.90;;;23.40;72.40;;;24.02;50.35;94606.63;5070915;28;20474;-56
2023/08/28 02:20:54;;;;;;;16.70;7.93;;;23.40;72.20;;;23.98;49.98;94609.78;5076497;28;20564;-60
2023/08/28 02:23:21;;;;;;;24.07;10.03;;;23.40;72.50;;;23.95;50.36;94599.50;5070749;28;20543;-57
2023/08/28 02:25:50;;;;;;;14.60;8.90;;;23.40;72.90;;;23.92;50.28;94599.97;5071003;28;20458;-60
2023/08/28 02:28:19;;;;;;;12.27;9.23;;;23.30;73.00;;;23.88;50.62;94593.41;5073870;28;20493;-61
2023/08/28 02:30:46;;;;;;;20.73;11.27;;;23.30;73.00;;;23.85;50.80;94595.72;5075872;28;20954;-56
2023/08/28 02:33:13;;;;;;;17.63;9.77;;;23.20;73.10;;;23.80;50.61;94597.19;5080094;28;20564;-56
2023/08/28 02:35:42;;;;;;;18.13;10.40;;;23.20;73.40;;;23.77;51.18;94591.47;5071970;28;20480;-56
2023/08/28 02:38:11;;;;;;;13.50;8.90;;;23.10;73.50;;;23.73;50.69;94592.97;5071566;28;20482;-56
2023/08/28 02:40:38;;;;;;;16.13;10.40;;;23.10;73.70;;;23.69;51.53;94592.63;5074254;28;20461;-57
2023/08/28 02:43:06;;;;;;;18.47;11.00;;;23.10;73.90;;;23.67;51.35;94592.03;5071070;28;20515;-61
2023/08/28 02:45:36;;;;;;;25.60;12.53;;;23.10;74.00;;;23.65;51.76;94594.09;5073335;28;20495;-61
2023/08/28 02:48:04;;;;;;;22.60;11.10;;;23.00;74.30;;;23.62;51.03;94592.72;5072813;28;20502;-55
2023/08/28 02:50:32;;;;;;;23.77;11.43;;;23.00;74.30;;;23.59;51.24;94586.97;5078231;28;20537;-57
2023/08/28 02:53:00;;;;;;;16.77;10.77;;;23.00;74.60;;;23.56;51.78;94585.56;5071594;28;20554;-61
2023/08/28 02:55:28;;;;;;;18.30;11.23;;;23.00;74.90;;;23.53;51.94;94591.41;5072747;28;20818;-61
2023/08/28 02:57:55;;;;;;;23.30;11.00;;;22.90;75.70;;;23.50;51.80;94586.50;5073999;28;20553;-57
2023/08/28 03:00:22;;;;;;;19.63;11.23;;;22.90;75.00;;;23.46;51.30;94585.28;5073111;28;20825;-57
2023/08/28 03:02:50;;;;;;;25.13;10.37;;;22.80;75.00;;;23.43;51.43;94585.75;5075112;28;20446;-56
2023/08/28 03:05:17;;;;;;;27.00;10.80;;;22.80;75.20;;;23.40;51.86;94589.69;5076599;28;20450;-56
2023/08/28 03:07:44;;;;;;;22.67;11.37;;;22.80;75.50;;;23.39;52.25;94587.22;5075449;28;20494;-62
2023/08/28 03:10:13;;;;;;;16.97;9.30;;;22.80;75.70;;;23.37;52.07;94592.03;5071961;28;20451;-61
2023/08/28 03:12:40;;;;;;;21.27;10.27;;;22.80;75.70;;;23.35;51.87;94599.50;5074201;28;20540;-60
2023/08/28 03:15:08;;;;;;;23.50;11.03;;;22.70;75.70;;;23.34;52.08;94597.84;5072864;28;20524;-60
2023/08/28 03:17:35;;;;;;;20.80;11.50;;;22.70;76.20;;;23.31;52.41;94595.59;5074382;28;20523;-62
2023/08/28 03:20:04;;;;;;;28.83;13.30;;;22.70;76.20;;;23.29;51.93;94611.13;5069221;28;20501;-61
2023/08/28 03:22:31;;;;;;;39.47;17.73;;;22.70;76.10;;;23.25;51.73;94611.56;5073589;28;20517;-59
2023/08/28 03:24:58;;;;;;;52.77;22.03;;;22.70;76.10;;;23.21;51.75;94607.69;5075713;28;20871;-60
2023/08/28 03:27:27;;;;;;;56.63;25.90;;;22.60;76.00;;;23.19;52.31;94603.59;5072195;28;20515;-58
2023/08/28 03:29:54;;;;;;;61.17;26.47;;;22.60;76.00;;;23.15;52.05;94599.72;5071827;28;20862;-57
2023/08/28 03:32:21;;;;;;;75.20;28.53;;;22.60;76.30;;;23.12;51.87;94595.63;5069827;28;20454;-57
2023/08/28 03:34:48;;;;;;;67.93;27.60;;;22.50;76.50;;;23.09;52.50;94596.06;5076101;28;21010;-56
2023/08/28 03:37:16;;;;;;;63.63;28.70;;;22.50;77.00;;;23.06;51.88;94596.50;5070975;28;20458;-56
2023/08/28 03:39:43;;;;;;;54.17;24.70;;;22.50;76.90;;;23.04;52.79;94598.59;5069952;28;20478;-57
2023/08/28 03:42:10;;;;;;;71.63;26.90;;;22.40;77.00;;;23.00;52.55;94598.19;5072822;28;20462;-56
2023/08/28 03:44:39;;;;;;;51.80;22.47;;;22.40;77.00;;;22.98;52.77;94588.75;5073886;28;21011;-56
2023/08/28 03:47:06;;;;;;;47.27;20.67;;;22.40;77.40;;;22.95;52.01;94595.38;5071349;28;20454;-60
2023/08/28 03:49:34;;;;;;;46.10;20.57;;;22.30;77.30;;;22.92;52.87;94591.28;5074455;28;20493;-61
2023/08/28 03:52:01;;;;;;;38.23;16.67;;;22.30;77.70;;;22.90;52.81;94588.00;5070539;28;20458;-62
2023/08/28 03:54:28;;;;;;;40.53;15.43;;;22.30;77.80;;;22.90;52.77;94587.19;5071381;28;21003;-57
2023/08/28 03:56:55;;;;;;;31.93;14.37;;;22.30;77.90;;;22.89;52.89;94591.72;5073349;28;21016;-61
2023/08/28 03:59:23;;;;;;;36.40;14.80;;;22.30;78.10;;;22.89;52.83;94593.59;5070228;28;20474;-62
2023/08/28 04:01:53;;;;;;;28.83;13.30;;;22.30;78.20;;;22.87;53.00;94593.00;5075871;28;20482;-56
2023/08/28 04:04:21;;;;;;;32.33;14.00;;;22.30;78.30;;;22.84;52.82;94588.91;5072955;28;20467;-59
2023/08/28 04:06:48;;;;;;;30.77;11.50;;;22.20;78.20;;;22.84;53.30;94588.91;5077513;28;20447;-56
2023/08/28 04:09:15;;;;;;;34.63;14.87;;;22.20;78.50;;;22.84;52.70;94588.91;5068514;28;20494;-56
2023/08/28 04:11:43;;;;;;;34.27;14.47;;;22.20;78.50;;;22.85;52.75;94589.69;5076847;28;20504;-61
2023/08/28 04:14:10;;;;;;;38.93;15.50;;;22.20;78.70;;;22.86;52.52;94596.72;5069204;28;20525;-61
2023/08/28 04:16:38;;;;;;;48.50;19.50;;;22.30;78.70;;;22.85;52.79;94587.84;5071619;28;20538;-61
2023/08/28 04:19:06;;;;;;;69.90;29.00;;;22.30;79.00;;;22.85;53.24;94592.38;5073450;28;20470;-59
2023/08/28 04:21:34;;;;;;;79.57;32.30;;;22.20;78.90;;;22.85;53.36;94592.38;5070316;28;20449;-60
2023/08/28 04:24:01;;;;;;;87.93;39.43;;;22.20;79.10;;;22.87;53.36;94583.09;5073699;28;20474;-61
2023/08/28 04:26:28;;;;;;;94.80;36.13;;;22.30;79.20;;;22.90;52.80;94587.19;5072754;28;20493;-60
2023/08/28 04:28:55;;;;;;;66.93;29.70;;;22.30;79.20;;;22.92;52.70;94590.47;5072559;28;20493;-56
2023/08/28 04:31:23;;;;;;;79.17;27.97;;;22.30;79.10;;;22.95;52.95;94598.06;5075448;28;20463;-54
2023/08/28 04:33:50;;;;;;;56.63;26.00;;;22.30;79.20;;;22.98;52.81;94588.75;5073290;28;21118;-61
2023/08/28 04:36:19;;;;;;;59.57;25.20;;;22.40;79.40;;;22.99;53.08;94591.22;5069029;28;20575;-61
2023/08/28 04:38:46;;;;;;;49.03;20.83;;;22.40;79.30;;;23.01;52.66;94588.31;5071171;28;20462;-58
2023/08/28 04:41:13;;;;;;;45.03;20.07;;;22.40;79.30;;;23.02;53.18;94593.44;5074213;28;20649;-56
2023/08/28 04:43:40;;;;;;;63.70;21.13;;;22.40;79.50;;;23.03;52.89;94602.31;5071800;28;20469;-56
2023/08/28 04:46:07;;;;;;;44.17;19.40;;;22.40;79.60;;;23.08;53.13;94599.75;5073095;28;20993;-56
2023/08/28 04:48:35;;;;;;;43.67;17.80;;;22.50;79.70;;;23.14;53.25;94604.25;5066615;28;20502;-56
2023/08/28 04:51:04;;;;;;;38.10;15.27;;;22.60;79.70;;;23.18;52.72;94610.00;5068771;28;20443;-56
2023/08/28 04:53:33;;;;;;;25.70;11.23;;;22.60;79.70;;;23.18;53.26;94610.81;5073688;28;20485;-56
2023/08/28 04:56:00;;;;;;;20.63;10.63;;;22.60;79.70;;;23.17;53.24;94617.22;5071027;28;20459;-55
2023/08/28 04:58:27;;;;;;;19.50;10.63;;;22.60;79.70;;;23.18;52.67;94608.13;5073725;28;20484;-61
2023/08/28 05:00:54;;;;;;;16.17;9.20;;;22.60;79.80;;;23.19;52.77;94612.47;5070095;28;20544;-62
2023/08/28 05:03:22;;;;;;;23.73;8.23;;;22.60;79.90;;;23.22;53.20;94611.19;5071170;28;20563;-62
2023/08/28 05:05:49;;;;;;;15.23;8.23;;;22.60;79.90;;;23.26;52.60;94610.50;5080087;28;20469;-60
2023/08/28 05:08:16;;;;;;;10.60;6.60;;;22.60;80.00;;;23.29;52.26;94595.84;5070582;28;20551;-61
2023/08/28 05:10:45;;;;;;;11.53;5.63;;;22.70;79.80;;;23.32;52.75;94591.88;5074902;28;21085;-60
2023/08/28 05:13:12;;;;;;;11.13;7.23;;;22.70;79.60;;;23.32;52.47;94595.38;5074032;28;20480;-62
2023/08/28 05:15:39;;;;;;;13.87;8.07;;;22.70;79.80;;;23.36;53.04;94585.00;5069998;28;20970;-61
2023/08/28 05:18:07;;;;;;;22.87;7.97;;;22.70;80.10;;;23.40;52.72;94583.50;5070330;28;20466;-60
2023/08/28 05:20:34;;;;;;;17.30;6.93;;;22.80;79.90;;;23.47;53.03;94581.56;5072623;28;20934;-60
2023/08/28 05:23:01;;;;;;;10.90;7.20;;;22.80;79.90;;;23.56;51.99;94588.25;5068653;28;20729;-56
2023/08/28 05:25:28;;;;;;;14.20;8.17;;;22.90;79.60;;;23.62;52.64;94591.88;5068300;28;20876;-55
2023/08/28 05:27:57;;;;;;;13.20;7.47;;;22.90;79.60;;;23.69;52.08;94599.88;5069896;28;20570;-57
2023/08/28 05:30:24;;;;;;;13.83;7.70;;;23.00;79.50;;;23.74;51.88;94597.31;5069718;28;20507;-57
2023/08/28 05:32:52;;;;;;;13.93;7.97;;;23.10;79.50;;;23.82;51.75;94596.97;5078668;28;20503;-59
2023/08/28 05:35:19;;;;;;;25.63;8.67;;;23.10;79.40;;;23.92;51.58;94596.44;5076490;28;20562;-61
2023/08/28 05:37:46;;;;;;;14.00;7.97;;;23.20;79.30;;;24.06;51.50;94591.69;5078232;28;20992;-55
2023/08/28 05:40:15;;;;;;;19.83;9.30;;;23.40;79.10;;;24.23;51.93;94589.13;5073759;28;20481;-56
2023/08/28 05:42:43;;;;;;;16.07;9.37;;;23.50;78.60;;;24.38;51.70;94580.63;5082983;28;21032;-56
2023/08/28 05:45:12;;;;;;;15.50;9.07;;;23.60;78.30;;;24.54;51.39;94585.31;5076340;28;20504;-60
2023/08/28 05:47:40;;;;;;;15.70;9.87;;;23.80;78.10;;;24.69;50.75;94587.53;5069019;28;20457;-57
2023/08/28 05:50:09;;;;;;;23.13;10.70;;;23.90;77.40;;;24.88;50.59;94575.59;5069453;28;20898;-55
2023/08/28 05:52:36;;;;;;;24.77;9.37;;;24.10;77.70;;;25.06;50.21;94574.63;5071834;28;20453;-61
2023/08/28 05:55:04;;;;;;;18.20;10.17;;;24.30;76.70;;;25.21;50.19;94573.31;5072294;28;20471;-61
2023/08/28 05:57:32;;;;;;;22.93;10.43;;;24.40;76.20;;;25.37;49.85;94577.16;5075833;28;20891;-56
2023/08/28 05:59:59;;;;;;;17.10;9.87;;;24.60;75.90;;;25.54;49.04;94574.50;5074932;28;20480;-57
2023/08/28 06:02:27;;;;;;;23.60;10.77;;;24.70;75.30;;;25.72;49.29;94574.31;5077318;28;20549;-62
2023/08/28 06:04:55;;;;;;;21.03;9.50;;;24.90;75.00;;;25.90;48.49;94577.84;5073510;28;21029;-54
2023/08/28 06:07:22;;;;;;;17.67;8.00;;;25.10;74.20;;;26.02;48.46;94581.31;5077497;28;21027;-55
2023/08/28 06:09:50;;;;;;;17.90;7.63;;;25.20;73.30;;;26.09;48.05;94573.91;5080518;28;20494;-57
2023/08/28 06:12:17;;;;;;;23.67;7.60;;;25.30;72.50;;;26.21;47.69;94576.53;5073359;28;20457;-61
2023/08/28 06:14:44;;;;;;;12.77;7.40;;;25.40;72.20;;;26.37;47.28;94590.22;5079274;28;20477;-61
2023/08/28 06:17:11;;;;;;;15.30;6.83;;;25.50;71.90;;;26.53;47.17;94599.41;5072373;28;20587;-61
2023/08/28 06:19:40;;;;;;;17.30;6.90;;;25.70;71.50;;;26.68;46.72;94602.34;5076934;28;20466;-57
2023/08/28 06:22:07;;;;;;;20.93;7.37;;;25.90;70.70;;;26.82;46.19;94600.94;5073009;28;20560;-62
2023/08/28 06:24:34;;;;;;;12.70;6.77;;;26.00;69.60;;;26.94;46.01;94597.31;5073686;28;20470;-62
2023/08/28 06:27:02;;;;;;;16.23;7.23;;;26.10;69.20;;;27.03;45.71;94603.91;5077924;28;20859;-61
2023/08/28 06:29:29;;;;;;;10.13;6.43;;;26.30;68.60;;;27.12;45.48;94602.41;5072929;28;20513;-56
2023/08/28 06:31:56;;;;;;;12.53;6.60;;;26.30;68.30;;;27.22;45.31;94596.34;5077510;28;20453;-61
2023/08/28 06:34:24;;;;;;;15.30;6.83;;;26.40;67.90;;;27.28;45.23;94598.03;5079272;28;21405;-59
2023/08/28 06:36:52;;;;;;;9.50;6.30;;;26.50;67.50;;;27.33;45.17;94598.13;5073167;28;20926;-56
2023/08/28 06:39:20;;;;;;;18.10;7.60;;;26.60;67.40;;;27.40;44.94;94597.91;5075924;28;20478;-56
2023/08/28 06:41:47;;;;;;;16.23;7.20;;;26.60;67.00;;;27.43;44.96;94600.13;5075049;28;21037;-57
2023/08/28 06:44:15;;;;;;;12.57;6.60;;;26.70;66.60;;;27.47;44.62;94597.75;5071140;28;20478;-61
2023/08/28 06:46:42;;;;;;;11.73;5.87;;;26.70;66.50;;;27.54;44.98;94595.66;5075585;28;21086;-62
2023/08/28 06:49:09;;;;;;;14.97;5.83;;;26.70;66.60;;;27.66;44.61;94595.53;5077037;28;20635;-57
2023/08/28 06:51:36;;;;;;;14.70;6.30;;;26.80;66.70;;;27.79;44.96;94589.69;5072101;28;20449;-61
2023/08/28 06:54:06;;;;;;;14.70;6.37;;;26.90;66.80;;;27.96;44.44;94589.63;5071844;28;20571;-61
2023/08/28 06:56:33;;;;;;;24.43;6.70;;;27.10;66.90;;;28.15;44.04;94598.19;5075426;28;20459;-56
2023/08/28 06:59:00;;;;;;;10.37;6.20;;;27.20;66.50;;;28.35;44.13;94594.03;5071133;28;20910;-56
2023/08/28 07:01:28;;;;;;;15.03;7.20;;;27.50;65.90;;;28.50;43.73;94593.34;5076034;28;20469;-62
2023/08/28 07:03:55;;;;;;;16.37;6.00;;;27.60;65.20;;;28.58;43.23;94590.13;5071896;28;20477;-60
2023/08/28 07:06:22;;;;;;;20.20;7.03;;;27.70;64.30;;;28.65;43.29;94587.25;5072657;28;20450;-55
2023/08/28 07:08:49;;;;;;;14.30;6.60;;;27.80;63.90;;;28.72;43.03;94593.25;5076690;28;20497;-59
2023/08/28 07:11:18;;;;;;;8.30;5.50;;;27.90;63.50;;;28.84;42.31;94579.53;5071584;28;20458;-56
2023/08/28 07:13:45;;;;;;;17.13;6.10;;;28.00;63.60;;;29.02;42.79;94600.75;5073147;28;20466;-56
2023/08/28 07:16:12;;;;;;;13.73;6.13;;;28.20;63.80;;;29.22;43.19;94589.22;5069436;28;20449;-62
2023/08/28 07:18:40;;;;;;;10.13;5.60;;;28.30;63.70;;;29.48;42.87;94598.28;5072471;28;20315;-57
2023/08/28 07:21:07;;;;;;;14.70;6.10;;;28.60;63.50;;;29.78;41.85;94604.88;5078810;28;20199;-56
2023/08/28 07:23:36;;;;;;;15.07;6.60;;;28.90;62.80;;;30.07;41.93;94598.16;5071680;28;20226;-57
2023/08/28 07:26:03;;;;;;;19.50;6.50;;;29.10;62.20;;;30.34;40.89;94601.44;5073350;28;20204;-57
2023/08/28 07:28:32;;;;;;;8.00;5.10;;;29.40;61.80;;;30.62;40.70;94599.31;5070480;28;20284;-57
2023/08/28 07:31:01;;;;;;;32.55;6.85;;;29.70;60.50;;;30.82;40.40;94597.66;5071970;28;20223;-62
2023/08/28 07:33:28;;;;;;;13.93;5.80;;;29.90;60.40;;;31.02;40.23;94591.41;5076460;28;20231;-60
2023/08/28 07:35:55;;;;;;;16.02;6.15;;;30.10;59.90;;;31.27;40.25;94595.94;5074123;28;20208;-57
2023/08/28 07:38:23;;;;;;;14.27;5.80;;;30.30;59.40;;;31.54;39.17;94592.88;5074208;28;20285;-56
2023/08/28 07:40:50;;;;;;;7.45;5.47;;;30.60;58.50;;;31.85;38.87;94597.34;5071776;28;20196;-56
2023/08/28 07:43:17;;;;;;;15.45;5.40;;;30.90;58.10;;;32.10;38.64;94599.09;5074440;28;20667;-62
2023/08/28 07:45:46;;;;;;;11.57;5.63;;;31.20;57.30;;;32.26;38.09;94597.13;5069827;28;20214;-57
2023/08/28 07:48:13;;;;;;;12.30;5.50;;;31.40;57.20;;;32.50;37.90;94599.91;5071805;28;20212;-57
2023/08/28 07:50:40;;;;;;;17.00;5.88;;;31.50;56.70;;;32.84;37.51;94597.19;5076553;28;20192;-57
2023/08/28 07:53:08;;;;;;;8.65;4.95;;;31.80;56.30;;;33.17;36.79;94600.13;5068208;28;20220;-63
2023/08/28 07:55:35;;;;;;;7.75;4.20;;;32.20;55.50;;;33.49;36.16;94598.69;5071193;28;20200;-55
2023/08/28 07:58:03;;;;;;;9.90;4.97;;;32.50;55.10;;;33.85;35.58;94600.16;5074718;28;20808;-61
2023/08/28 08:00:34;;;;;;;8.40;4.30;;;32.80;54.50;;;34.27;35.01;94598.50;5073659;28;20204;-57
2023/08/28 08:03:04;;;;;;;19.20;4.80;;;33.30;54.00;;;34.66;35.13;94595.41;5074466;28;20244;-61
2023/08/28 08:05:31;;;;;;;11.80;5.10;;;33.80;52.80;;;34.96;34.59;94598.72;5072739;28;20224;-61
2023/08/28 08:07:59;;;;;;;20.35;6.18;;;34.20;52.00;;;35.25;33.88;94592.19;5070982;28;20280;-57
2023/08/28 08:10:26;;;;;;;9.82;4.13;;;34.60;51.80;;;35.61;33.92;94596.97;5073342;28;20231;-61
2023/08/28 08:12:54;;;;;;;11.52;4.68;;;34.90;51.10;;;35.97;33.59;94604.44;5071703;28;20210;-63
2023/08/28 08:15:21;;;;;;;10.45;5.32;;;35.20;50.60;;;36.31;32.59;94603.16;5074049;28;20241;-62
2023/08/28 08:17:49;;;;;;;9.75;4.32;;;35.60;50.00;;;36.63;32.61;94604.06;5069968;28;20294;-62
2023/08/28 08:20:17;;;;;;;10.90;5.07;;;35.90;49.40;;;36.92;31.89;94600.88;5069412;28;20294;-62
2023/08/28 08:22:46;;;;;;;10.93;3.90;;;36.30;48.60;;;37.22;31.86;94603.13;5071003;28;20268;-55
2023/08/28 08:25:14;;;;;;;9.38;5.03;;;36.70;48.00;;;37.45;31.33;94593.72;5070346;28;20303;-63
2023/08/28 08:27:44;;;;;;;5.40;4.90;;;37.00;47.40;;;37.50;30.81;94592.75;5073233;28;20208;-57
2023/08/28 08:30:14;;;;;;;9.15;5.40;;;37.20;46.70;;;37.57;30.76;94592.28;5071668;28;20204;-63
2023/08/28 08:32:43;;;;;;;24.08;5.35;;;37.30;46.30;;;37.73;30.39;94584.47;5071086;28;20707;-60
2023/08/28 08:35:12;;;;;;;13.73;5.30;;;37.50;46.30;;;37.88;30.08;94585.94;5076961;28;20196;-55
2023/08/28 08:37:40;;;;;;;11.93;4.90;;;37.60;45.80;;;37.95;30.00;94584.31;5079275;28;20641;-55
2023/08/28 08:40:13;;;;;;;5.82;4.55;;;37.60;45.40;;;37.81;28.13;94586.41;5074681;28;20224;-57
2023/08/28 08:42:40;;;;;;;16.58;5.75;;;37.40;43.80;;;37.58;28.46;94580.19;5075134;28;20289;-57
2023/08/28 08:45:10;;;;;;;34.20;5.88;;;37.00;43.30;;;37.28;28.65;94574.47;5076503;28;20268;-63
2023/08/28 08:47:38;;;;;;;13.23;5.05;;;36.70;43.50;;;36.91;29.47;94576.50;5073501;28;20238;-57
2023/08/28 08:50:07;;;;;;;7.80;4.63;;;36.30;44.30;;;36.56;29.42;94570.78;5074335;28;20240;-55
2023/08/28 08:52:36;;;;;;;9.25;5.80;;;35.90;44.80;;;36.28;30.40;94559.16;5073884;28;20295;-56
2023/08/28 08:55:10;;;;;;;14.50;6.60;;;35.70;45.00;;;36.07;30.21;94554.13;5070750;28;20244;-58
2023/08/28 08:57:38;;;;;;;7.70;5.00;;;35.40;45.60;;;35.92;30.42;94558.03;5075193;28;20683;-64
2023/08/28 09:00:11;;;;;;;9.20;5.75;;;35.20;46.10;;;35.82;30.78;94547.28;5071703;28;20216;-62
2023/08/28 09:02:39;;;;;;;9.48;5.55;;;35.10;46.50;;;35.72;30.05;94545.56;5069229;28;20275;-61
2023/08/28 09:05:07;;;;;;;9.68;4.65;;;34.90;45.60;;;35.64;31.42;94546.31;5072085;28;20734;-55
2023/08/28 09:07:34;;;;;;;10.98;5.15;;;34.80;46.50;;;35.75;30.98;94546.91;5074706;28;20205;-56
2023/08/28 09:10:02;;;;;;;9.50;4.70;;;34.90;47.10;;;35.97;30.71;94548.88;5074729;28;20227;-60
2023/08/28 09:12:31;;;;;;;8.65;4.75;;;35.00;46.90;;;36.22;30.80;94534.59;5072509;28;20218;-62
2023/08/28 09:14:59;;;;;;;9.20;5.53;;;35.20;47.00;;;36.50;30.70;94537.25;5077841;28;20216;-55
2023/08/28 09:17:26;;;;;;;15.00;5.10;;;35.50;46.70;;;36.72;30.90;94530.13;5079957;28;20216;-56
2023/08/28 09:19:54;;;;;;;11.60;5.38;;;35.70;46.30;;;36.90;30.28;94533.75;5076485;28;20310;-56
2023/08/28 09:22:25;;;;;;;12.25;4.40;;;35.90;46.10;;;37.00;30.24;94528.00;5076128;28;20206;-61
2023/08/28 09:24:53;;;;;;;8.02;5.05;;;36.10;45.70;;;37.01;30.18;94518.63;5065158;28;20224;-57
2023/08/28 09:27:21;;;;;;;8.73;5.53;;;36.10;45.10;;;37.03;29.85;94512.84;5070790;28;20680;-56
2023/08/28 09:29:50;;;;;;;9.70;5.40;;;36.10;45.00;;;37.04;29.73;94509.78;5079926;28;20232;-57
2023/08/28 09:32:17;;;;;;;9.25;4.72;;;36.10;45.20;;;37.11;29.98;94504.66;5077179;28;20229;-56
2023/08/28 09:34:44;;;;;;;10.15;5.13;;;36.20;45.00;;;37.23;29.72;94497.78;5080666;28;21240;-56
2023/08/28 09:37:12;;;;;;;10.15;4.88;;;36.30;45.10;;;37.33;29.47;94492.00;5082231;28;20203;-60
2023/08/28 09:39:40;;;;;;;17.52;4.65;;;36.40;44.90;;;37.47;29.39;94489.13;5074294;28;20215;-55
2023/08/28 09:42:08;;;;;;;8.68;4.55;;;36.50;44.60;;;37.60;29.37;94495.59;5081985;28;20199;-57
2023/08/28 09:44:37;;;;;;;7.70;5.00;;;36.70;44.50;;;37.68;28.99;94483.84;5079640;28;20223;-56
2023/08/28 09:47:06;;;;;;;5.18;4.68;;;36.70;43.50;;;37.71;28.41;94494.19;5071435;28;20200;-62
2023/08/28 09:49:43;;;;;;;7.45;5.30;;;36.80;43.60;;;37.76;27.70;94479.50;5070082;28;20235;-63
2023/08/28 09:52:12;;;;;;;13.75;4.68;;;36.80;43.10;;;37.77;28.52;94475.63;5070378;28;20192;-62
2023/08/28 09:54:39;;;;;;;7.43;4.75;;;36.80;43.00;;;37.82;28.47;94473.53;5074086;28;20647;-56
2023/08/28 09:57:15;;;;;;;6.03;4.38;;;36.90;43.00;;;37.91;28.11;94469.97;5068324;28;20258;-55
2023/08/28 09:59:43;;;;;;;4.78;4.38;;;37.00;43.10;;;37.88;27.85;94465.13;5077702;28;20597;-56
2023/08/28 10:02:12;;;;;;;18.23;4.00;;;37.00;42.80;;;37.83;27.79;94460.59;5075323;28;20292;-61
2023/08/28 10:04:40;;;;;;;19.85;4.28;;;36.90;42.10;;;37.77;27.15;94454.47;5067625;28;20645;-56
2023/08/28 10:07:08;;;;;;;12.13;3.80;;;36.90;41.40;;;37.71;26.77;94457.69;5073645;28;20204;-57
2023/08/28 10:09:39;;;;;;;8.75;3.60;;;36.80;41.40;;;37.68;26.96;94461.88;5067278;28;20701;-58
2023/08/28 10:12:07;;;;;;;5.47;3.58;;;36.80;40.70;;;37.65;26.88;94457.81;5069125;28;20208;-63
2023/08/28 10:14:34;;;;;;;6.28;3.90;;;36.80;41.10;;;37.63;26.87;94453.78;5073205;28;20224;-56
2023/08/28 10:17:05;;;;;;;15.50;4.30;;;36.70;40.50;;;37.59;26.59;94444.59;5068185;28;20204;-63